createdAt,value
2019-04-05T00:00:55.899Z,12.47
2019-04-05T00:03:25.452Z,11.70
2019-04-05T00:05:54.963Z,9.97
2019-04-05T00:08:24.525Z,10.83
2019-04-05T00:10:54.153Z,12.67
2019-04-05T00:13:23.616Z,11.23
2019-04-05T00:15:53.172Z,14.23
2019-04-05T00:18:22.715Z,15.63
2019-04-05T00:20:52.390Z,10.77
2019-04-05T00:23:21.870Z,13.23
2019-04-05T00:25:51.389Z,12.33
2019-04-05T00:28:20.923Z,9.47
2019-04-05T00:30:50.430Z,14.43
2019-04-05T00:33:19.933Z,11.20
2019-04-05T00:35:49.420Z,10.73
2019-04-05T00:38:18.923Z,10.10
2019-04-05T00:40:48.472Z,11.53
2019-04-05T00:43:17.971Z,12.53
2019-04-05T00:45:47.517Z,12.40
2019-04-05T00:48:17.030Z,11.93
2019-04-05T00:50:46.519Z,10.23
2019-04-05T00:53:16.025Z,11.57
2019-04-05T00:55:45.602Z,16.13
2019-04-05T00:58:15.179Z,14.73
2019-04-05T01:00:44.666Z,13.03
2019-04-05T01:03:14.126Z,11.20
2019-04-05T01:05:43.784Z,13.60
2019-04-05T01:08:13.411Z,12.47
2019-04-05T01:10:43.035Z,12.13
2019-04-05T01:13:12.598Z,11.00
2019-04-05T01:15:42.124Z,14.03
2019-04-05T01:18:11.790Z,11.60
2019-04-05T01:20:43.154Z,11.33
2019-04-05T01:23:12.973Z,10.43
2019-04-05T01:25:42.658Z,13.03
2019-04-05T01:28:12.174Z,14.07
2019-04-05T01:30:41.817Z,11.23
2019-04-05T01:33:11.333Z,14.23
2019-04-05T01:35:40.853Z,10.97
2019-04-05T01:38:10.940Z,11.27
2019-04-05T01:40:42.036Z,12.00
2019-04-05T01:43:11.523Z,18.30
2019-04-05T01:45:53.054Z,11.07
2019-04-05T01:48:12.765Z,14.10
2019-04-05T01:50:42.331Z,12.40
2019-04-05T01:53:11.987Z,13.70
2019-04-05T01:55:41.792Z,18.77
2019-04-05T01:58:11.321Z,13.73
2019-04-05T02:00:41.056Z,10.30
2019-04-05T02:03:10.530Z,12.77
2019-04-05T02:05:40.091Z,10.57
2019-04-05T02:08:09.724Z,10.90
2019-04-05T02:10:39.239Z,13.43
2019-04-05T02:13:08.995Z,12.33
2019-04-05T02:15:38.828Z,11.30
2019-04-05T02:18:08.401Z,13.67
2019-04-05T02:20:37.977Z,14.70
2019-04-05T02:23:07.580Z,11.33
2019-04-05T02:25:37.126Z,11.37
2019-04-05T02:28:06.692Z,12.70
2019-04-05T02:30:36.345Z,13.20
2019-04-05T02:33:06.076Z,13.97
2019-04-05T02:35:38.975Z,11.27
2019-04-05T02:38:07.054Z,14.07
2019-04-05T02:40:39.988Z,12.60
2019-04-05T02:43:12.428Z,13.70
2019-04-05T02:45:42.723Z,16.03
2019-04-05T02:48:13.954Z,13.47
2019-04-05T02:50:46.629Z,13.77
2019-04-05T02:53:18.041Z,16.40
2019-04-05T02:55:48.876Z,12.77
2019-04-05T02:58:19.211Z,17.00
2019-04-05T03:00:49.142Z,12.43
2019-04-05T03:03:18.787Z,11.00
2019-04-05T03:05:49.423Z,14.33
2019-04-05T03:08:19.284Z,12.10
2019-04-05T03:11:19.294Z,15.00
2019-04-05T03:13:52.211Z,13.73
2019-04-05T03:16:40.832Z,13.53
2019-04-05T03:19:12.213Z,13.70
2019-04-05T03:21:44.797Z,12.43
2019-04-05T03:24:18.603Z,13.90
2019-04-05T03:26:56.636Z,14.93
2019-04-05T03:29:26.575Z,13.30
2019-04-05T03:31:56.189Z,12.30
2019-04-05T03:34:26.178Z,13.93
2019-04-05T03:36:55.948Z,12.60
2019-04-05T03:39:25.498Z,11.70
2019-04-05T03:41:55.904Z,12.43
2019-04-05T03:44:27.092Z,11.97
2019-04-05T03:46:58.006Z,14.07
2019-04-05T03:49:28.202Z,13.60
2019-04-05T03:51:57.919Z,17.07
2019-04-05T03:54:27.465Z,14.13
2019-04-05T03:56:57.123Z,14.53
2019-04-05T03:59:26.643Z,13.50
2019-04-05T04:01:56.877Z,17.30
2019-04-05T04:04:26.698Z,14.50
2019-04-05T04:06:56.797Z,13.70
2019-04-05T04:09:26.420Z,16.97
2019-04-05T04:11:56.267Z,14.23
2019-04-05T04:14:25.921Z,17.33
2019-04-05T04:17:11.413Z,16.73
2019-04-05T04:19:27.736Z,12.50
2019-04-05T04:22:36.904Z,19.07
2019-04-05T04:25:06.779Z,17.20
2019-04-05T04:27:38.359Z,19.73
2019-04-05T04:30:08.362Z,16.40
2019-04-05T04:32:38.001Z,19.57
2019-04-05T04:35:07.695Z,13.60
2019-04-05T04:37:37.749Z,16.60
2019-04-05T04:40:07.662Z,16.67
2019-04-05T04:42:37.403Z,16.03
2019-04-05T04:45:12.294Z,17.80
2019-04-05T04:47:38.859Z,21.00
2019-04-05T04:50:10.809Z,18.87
2019-04-05T04:52:41.195Z,17.17
2019-04-05T04:55:11.502Z,17.97
2019-04-05T04:57:41.360Z,17.40
2019-04-05T05:00:11.335Z,19.40
2019-04-05T05:02:41.381Z,23.13
2019-04-05T05:05:11.720Z,14.97
2019-04-05T05:07:41.800Z,17.57
2019-04-05T05:10:11.804Z,19.07
2019-04-05T05:12:43.502Z,23.07
2019-04-05T05:15:13.194Z,20.70
2019-04-05T05:17:43.071Z,19.07
2019-04-05T05:20:16.280Z,19.30
2019-04-05T05:22:51.052Z,17.40
2019-04-05T05:25:27.655Z,16.60
2019-04-05T05:28:21.615Z,19.30
2019-04-05T05:31:02.360Z,17.27
2019-04-05T05:33:36.346Z,16.07
2019-04-05T05:36:10.645Z,20.73
2019-04-05T05:38:43.093Z,16.07
2019-04-05T05:41:16.287Z,15.60
2019-04-05T05:43:47.880Z,17.00
2019-04-05T05:46:20.101Z,18.93
2019-04-05T05:48:54.170Z,16.27
2019-04-05T05:51:25.871Z,17.97
2019-04-05T05:54:04.203Z,18.17
2019-04-05T05:56:34.282Z,18.03
2019-04-05T05:59:11.824Z,17.47
2019-04-05T06:01:47.112Z,24.17
2019-04-05T06:04:20.716Z,17.73
2019-04-05T06:07:01.685Z,19.13
2019-04-05T06:09:32.479Z,17.80
2019-04-05T06:12:03.266Z,18.57
2019-04-05T06:14:39.577Z,19.87
2019-04-05T06:17:10.539Z,17.23
2019-04-05T06:19:42.021Z,21.60
2019-04-05T06:22:14.250Z,20.13
2019-04-05T06:24:48.300Z,18.00
2019-04-05T06:27:26.588Z,18.33
2019-04-05T06:29:58.779Z,20.77
2019-04-05T06:32:33.985Z,16.73
2019-04-05T06:35:02.296Z,16.03
2019-04-05T06:37:37.572Z,19.57
2019-04-05T06:40:07.527Z,19.63
2019-04-05T06:42:42.705Z,17.73
2019-04-05T06:45:14.447Z,20.47
2019-04-05T06:47:45.480Z,18.37
2019-04-05T06:50:20.595Z,22.43
2019-04-05T06:52:51.360Z,19.83
2019-04-05T06:55:23.502Z,24.73
2019-04-05T06:57:55.111Z,19.00
2019-04-05T07:00:31.287Z,17.70
2019-04-05T07:03:07.686Z,16.90
2019-04-05T07:05:40.384Z,18.50
2019-04-05T07:08:18.309Z,16.77
2019-04-05T07:10:51.200Z,16.17
2019-04-05T07:13:27.571Z,18.60
2019-04-05T07:16:03.510Z,19.30
2019-04-05T07:18:36.337Z,19.47
2019-04-05T07:21:10.204Z,20.20
2019-04-05T07:23:53.983Z,22.67
2019-04-05T07:26:27.125Z,19.83
2019-04-05T07:29:00.650Z,23.53
2019-04-05T07:31:36.500Z,25.57
2019-04-05T07:34:16.065Z,27.80
2019-04-05T07:37:01.466Z,23.47
2019-04-05T07:39:36.507Z,19.97
2019-04-05T07:42:07.430Z,27.50
2019-04-05T07:44:39.590Z,22.37
2019-04-05T07:47:10.019Z,20.60
2019-04-05T07:49:45.752Z,18.33
2019-04-05T07:52:24.732Z,19.80
2019-04-05T07:55:04.433Z,23.07
2019-04-05T07:57:34.648Z,18.60
2019-04-05T08:00:07.571Z,18.23
2019-04-05T08:02:38.964Z,24.10
2019-04-05T08:05:18.811Z,21.60
2019-04-05T08:07:54.879Z,21.33
2019-04-05T08:10:35.664Z,24.33
2019-04-05T08:13:21.260Z,19.57
2019-04-05T08:16:01.293Z,27.10
2019-04-05T08:18:40.755Z,23.80
2019-04-05T08:21:21.033Z,28.97
2019-04-05T08:24:45.414Z,27.20
2019-04-05T08:27:34.271Z,21.10
2019-04-05T08:30:15.577Z,23.07
2019-04-05T08:32:58.730Z,22.07
2019-04-05T08:35:34.359Z,19.03
2019-04-05T08:38:26.226Z,32.40
2019-04-05T08:41:09.490Z,17.90
2019-04-05T08:43:41.397Z,24.83
2019-04-05T08:46:13.997Z,18.70
2019-04-05T08:49:10.910Z,24.57
2019-04-05T08:51:53.249Z,20.00
2019-04-05T08:54:33.259Z,23.80
2019-04-05T08:57:54.627Z,18.47
2019-04-05T09:00:31.654Z,28.27
2019-04-05T09:03:12.288Z,22.97
2019-04-05T09:06:15.029Z,18.77
2019-04-05T09:08:59.203Z,17.63
2019-04-05T09:11:49.479Z,18.03
2019-04-05T09:14:31.691Z,17.03
2019-04-05T09:17:06.106Z,20.00
2019-04-05T09:19:38.154Z,20.27
2019-04-05T09:22:28.178Z,17.93
2019-04-05T09:24:58.890Z,18.00
2019-04-05T09:27:34.660Z,18.63
2019-04-05T09:30:28.021Z,15.97
2019-04-05T09:33:15.556Z,17.10
2019-04-05T09:35:49.850Z,18.00
2019-04-05T09:38:27.141Z,16.77
2019-04-05T09:41:12.113Z,17.47
2019-04-05T09:43:41.534Z,18.83
2019-04-05T09:46:11.158Z,15.37
2019-04-05T09:48:40.906Z,14.70
2019-04-05T09:51:10.498Z,15.47
2019-04-05T09:53:40.130Z,16.43
2019-04-05T09:56:10.049Z,15.53
2019-04-05T09:58:39.722Z,18.73
2019-04-05T10:01:09.456Z,19.60
2019-04-05T10:03:39.201Z,19.43
2019-04-05T10:06:09.744Z,16.93
2019-04-05T10:08:39.628Z,17.97
2019-04-05T10:11:09.407Z,12.93
2019-04-05T10:13:39.146Z,14.63
2019-04-05T10:16:08.817Z,14.30
2019-04-05T10:18:38.572Z,14.57
2019-04-05T10:21:08.263Z,15.10
2019-04-05T10:23:40.176Z,18.50
2019-04-05T10:26:09.908Z,15.77
2019-04-05T10:28:39.765Z,15.10
2019-04-05T10:31:09.379Z,13.50
2019-04-05T10:33:39.090Z,15.87
2019-04-05T10:36:08.754Z,13.17
2019-04-05T10:38:38.421Z,13.70
2019-04-05T10:41:08.029Z,12.60
2019-04-05T10:43:37.603Z,13.87
2019-04-05T10:46:09.087Z,12.83
2019-04-05T10:48:38.740Z,16.80
2019-04-05T10:51:08.317Z,15.50
2019-04-05T10:53:38.463Z,13.80
2019-04-05T10:56:08.052Z,13.07
2019-04-05T10:58:37.760Z,13.60
2019-04-05T11:01:07.766Z,18.57
2019-04-05T11:03:37.354Z,15.73
2019-04-05T11:06:07.048Z,16.93
2019-04-05T11:08:36.805Z,18.73
2019-04-05T11:11:06.516Z,16.67
2019-04-05T11:13:36.194Z,15.10
2019-04-05T11:16:05.873Z,19.83
2019-04-05T11:18:35.501Z,18.03
2019-04-05T11:21:05.035Z,17.93
2019-04-05T11:23:34.652Z,19.30
2019-04-05T11:26:04.198Z,20.63
2019-04-05T11:28:33.697Z,16.87
2019-04-05T11:31:03.773Z,21.37
2019-04-05T11:33:33.551Z,19.20
2019-04-05T11:36:03.279Z,21.97
2019-04-05T11:38:33.000Z,17.83
2019-04-05T11:41:03.908Z,18.37
2019-04-05T11:43:36.095Z,19.47
2019-04-05T11:46:05.740Z,22.03
2019-04-05T11:48:36.038Z,23.77
2019-04-05T11:51:05.653Z,16.97
2019-04-05T11:53:35.174Z,18.10
2019-04-05T11:56:14.695Z,16.00
2019-04-05T11:58:35.940Z,16.20
2019-04-05T12:01:26.821Z,17.13
2019-04-05T12:04:05.006Z,17.23
2019-04-05T12:06:35.280Z,17.87
2019-04-05T12:09:07.535Z,22.40
2019-04-05T12:11:37.112Z,15.97
2019-04-05T12:14:06.583Z,19.57
2019-04-05T12:16:36.568Z,19.93
2019-04-05T12:19:06.273Z,23.20
2019-04-05T12:21:35.818Z,15.43
2019-04-05T12:24:05.286Z,17.80
2019-04-05T12:26:35.221Z,22.90
2019-04-05T12:29:05.426Z,23.13
2019-04-05T12:31:34.954Z,15.73
2019-04-05T12:34:04.491Z,17.63
2019-04-05T12:36:34.012Z,18.80
2019-04-05T12:39:07.668Z,17.20
2019-04-05T12:41:34.945Z,19.23
2019-04-05T12:44:04.576Z,18.03
2019-04-05T12:46:34.713Z,16.97
2019-04-05T12:49:04.222Z,16.83
2019-04-05T12:51:33.745Z,17.50
2019-04-05T12:54:03.266Z,17.97
2019-04-05T12:56:32.929Z,17.67
2019-04-05T12:59:02.437Z,16.47
2019-04-05T13:01:31.982Z,23.73
2019-04-05T13:04:01.747Z,20.83
2019-04-05T13:06:31.332Z,19.80
2019-04-05T13:09:00.848Z,17.87
2019-04-05T13:11:30.592Z,17.30
2019-04-05T13:14:00.130Z,18.77
2019-04-05T13:16:30.188Z,15.87
2019-04-05T13:19:00.844Z,20.43
2019-04-05T13:21:33.040Z,15.30
2019-04-05T13:24:04.225Z,15.17
2019-04-05T13:26:33.516Z,17.37
2019-04-05T13:29:03.137Z,18.97
2019-04-05T13:31:32.855Z,19.70
2019-04-05T13:34:02.341Z,16.33
2019-04-05T13:36:31.866Z,19.53
2019-04-05T13:39:01.488Z,19.93
2019-04-05T13:41:32.193Z,15.60
2019-04-05T13:44:02.290Z,19.17
2019-04-05T13:46:31.904Z,17.70
2019-04-05T13:49:01.635Z,18.27
2019-04-05T13:51:32.036Z,14.20
2019-04-05T13:54:02.065Z,20.63
2019-04-05T13:56:31.621Z,19.07
2019-04-05T13:59:01.187Z,14.30
2019-04-05T14:01:30.749Z,20.67
2019-04-05T14:04:00.408Z,15.60
2019-04-05T14:06:29.980Z,16.43
2019-04-05T14:08:59.554Z,15.47
2019-04-05T14:11:29.104Z,15.03
2019-04-05T14:13:58.684Z,13.20
2019-04-05T14:16:28.262Z,15.50
2019-04-05T14:18:57.818Z,17.60
2019-04-05T14:21:39.479Z,17.40
2019-04-05T14:23:58.679Z,16.37
2019-04-05T14:26:29.333Z,11.13
2019-04-05T14:28:59.064Z,14.87
2019-04-05T14:31:29.609Z,13.67
2019-04-05T14:33:59.813Z,12.30
2019-04-05T14:36:29.337Z,17.27
2019-04-05T14:38:58.888Z,10.67
2019-04-05T14:41:28.483Z,10.67
2019-04-05T14:43:58.083Z,16.67
2019-04-05T14:46:29.048Z,10.30
2019-04-05T14:49:00.650Z,11.83
2019-04-05T14:51:30.118Z,12.53
2019-04-05T14:54:01.675Z,12.00
2019-04-05T14:56:31.427Z,9.87
2019-04-05T14:59:01.080Z,10.40
2019-04-05T15:01:30.675Z,13.50
2019-04-05T15:04:00.284Z,12.13
2019-04-05T15:06:29.878Z,11.50
2019-04-05T15:09:02.006Z,13.23
2019-04-05T15:11:30.735Z,12.73
2019-04-05T15:14:00.297Z,10.73
2019-04-05T15:16:29.911Z,9.80
2019-04-05T15:18:59.486Z,10.10
2019-04-05T15:21:29.093Z,10.00
2019-04-05T15:23:58.655Z,10.53
2019-04-05T15:26:28.202Z,10.90
2019-04-05T15:28:57.781Z,29.27
2019-04-05T15:31:27.437Z,11.73
2019-04-05T15:33:58.320Z,11.50
2019-04-05T15:36:29.436Z,12.07
2019-04-05T15:39:01.276Z,11.20
2019-04-05T15:41:30.633Z,13.67
2019-04-05T15:44:00.357Z,12.87
2019-04-05T15:46:29.981Z,14.37
2019-04-05T15:48:59.587Z,12.67
2019-04-05T15:51:29.332Z,11.13
2019-04-05T15:54:01.139Z,12.43
2019-04-05T15:56:34.153Z,12.93
2019-04-05T15:59:04.548Z,10.93
2019-04-05T16:01:35.049Z,12.67
2019-04-05T16:04:04.912Z,10.17
2019-04-05T16:06:34.560Z,11.93
2019-04-05T16:09:05.631Z,10.83
2019-04-05T16:11:35.901Z,13.53
2019-04-05T16:14:05.534Z,14.07
2019-04-05T16:16:35.045Z,12.13
2019-04-05T16:19:04.701Z,13.03
2019-04-05T16:21:34.325Z,14.30
2019-04-05T16:24:03.904Z,12.57
2019-04-05T16:26:33.529Z,12.73
2019-04-05T16:29:05.257Z,15.13
2019-04-05T16:31:34.887Z,17.60
2019-04-05T16:34:04.699Z,11.57
2019-04-05T16:36:34.301Z,14.17
2019-04-05T16:39:06.949Z,13.20
2019-04-05T16:41:36.514Z,17.53
2019-04-05T16:44:10.282Z,11.10
2019-04-05T16:46:41.142Z,10.73
2019-04-05T16:49:10.756Z,14.33
2019-04-05T16:51:40.365Z,19.10
2019-04-05T16:54:10.001Z,21.23
2019-04-05T16:56:39.660Z,21.67
2019-04-05T16:59:09.393Z,18.13
2019-04-05T17:01:38.980Z,24.10
2019-04-05T17:04:08.521Z,20.07
2019-04-05T17:06:38.016Z,21.97
2019-04-05T17:09:09.488Z,20.23
2019-04-05T17:11:39.141Z,31.27
2019-04-05T17:14:08.699Z,19.67
2019-04-05T17:16:40.836Z,22.70
2019-04-05T17:19:10.620Z,18.33
2019-04-05T17:21:40.191Z,21.50
2019-04-05T17:24:09.788Z,17.67
2019-04-05T17:26:39.361Z,20.73
2019-04-05T17:29:08.950Z,21.00
2019-04-05T17:31:38.640Z,17.73
2019-04-05T17:34:09.209Z,17.53
2019-04-05T17:36:38.797Z,20.03
2019-04-05T17:39:08.956Z,19.43
2019-04-05T17:41:38.450Z,21.43
2019-04-05T17:44:08.110Z,22.03
2019-04-05T17:46:37.630Z,17.80
2019-04-05T17:49:07.215Z,22.90
2019-04-05T17:51:36.770Z,19.13
2019-04-05T17:54:06.329Z,19.77
2019-04-05T17:56:36.371Z,17.87
2019-04-05T17:59:06.387Z,21.83
2019-04-05T18:01:38.650Z,22.27
2019-04-05T18:04:07.223Z,29.13
2019-04-05T18:06:36.764Z,26.17
2019-04-05T18:09:07.562Z,19.53
2019-04-05T18:11:37.139Z,24.87
2019-04-05T18:14:06.654Z,19.53
2019-04-05T18:16:36.202Z,21.90
2019-04-05T18:19:05.795Z,21.47
2019-04-05T18:21:36.785Z,19.03
2019-04-05T18:24:09.940Z,20.50
2019-04-05T18:26:39.538Z,20.43
2019-04-05T18:29:09.057Z,17.67
2019-04-05T18:31:38.596Z,17.73
2019-04-05T18:34:08.186Z,23.70
2019-04-05T18:36:37.872Z,21.70
2019-04-05T18:39:10.077Z,20.10
2019-04-05T18:41:39.665Z,22.63
2019-04-05T18:44:09.272Z,22.90
2019-04-05T18:46:39.028Z,22.93
2019-04-05T18:49:08.587Z,21.53
2019-04-05T18:51:38.141Z,20.10
2019-04-05T18:54:07.771Z,19.87
2019-04-05T18:56:37.339Z,16.77
2019-04-05T18:59:06.910Z,22.20
2019-04-05T19:01:36.549Z,17.70
2019-04-05T19:04:06.173Z,16.00
2019-04-05T19:06:35.728Z,17.40
2019-04-05T19:09:07.581Z,16.87
2019-04-05T19:11:37.209Z,17.97
2019-04-05T19:14:06.901Z,15.20
2019-04-05T19:16:36.514Z,17.00
2019-04-05T19:19:06.546Z,15.87
2019-04-05T19:21:36.135Z,17.80
2019-04-05T19:24:06.270Z,14.50
2019-04-05T19:26:35.873Z,18.63
2019-04-05T19:29:05.572Z,17.30
2019-04-05T19:49:14.865Z,19.27
2019-04-05T19:51:44.396Z,17.57
2019-04-05T19:54:13.983Z,18.93
2019-04-05T19:56:43.493Z,13.50
2019-04-05T19:59:13.079Z,15.20
2019-04-05T20:01:42.614Z,17.17
2019-04-05T20:04:12.193Z,16.50
2019-04-05T20:06:41.793Z,14.37
2019-04-05T20:09:11.296Z,15.20
2019-04-05T20:11:40.963Z,14.53
2019-04-05T20:14:10.521Z,17.07
2019-04-05T20:16:40.130Z,12.80
2019-04-05T20:19:09.689Z,14.77
2019-04-05T20:21:39.200Z,16.13
2019-04-05T20:24:14.141Z,12.50
2019-04-05T20:26:40.054Z,17.73
2019-04-05T20:29:09.618Z,15.77
2019-04-05T20:31:39.136Z,14.60
2019-04-05T20:34:08.702Z,14.93
2019-04-05T20:36:38.285Z,17.70
2019-04-05T20:39:08.616Z,22.40
2019-04-05T20:41:38.218Z,17.23
2019-04-05T20:44:07.708Z,18.50
2019-04-05T20:46:37.293Z,18.93
2019-04-05T20:49:06.816Z,22.13
2019-04-05T20:51:36.401Z,14.83
2019-04-05T20:54:06.033Z,16.10
2019-04-05T20:56:35.547Z,17.33
2019-04-05T20:59:05.090Z,15.70
2019-04-05T21:01:34.689Z,15.63
2019-04-05T21:04:04.432Z,15.43
2019-04-05T21:06:34.011Z,14.33
2019-04-05T21:09:05.379Z,15.33
2019-04-05T21:11:35.008Z,15.20
2019-04-05T21:14:04.645Z,15.97
2019-04-05T21:16:34.266Z,18.10
2019-04-05T21:19:05.065Z,18.87
2019-04-05T21:21:34.716Z,13.83
2019-04-05T21:24:04.278Z,17.50
2019-04-05T21:26:33.771Z,14.13
2019-04-05T21:29:03.301Z,15.77
2019-04-05T21:31:32.908Z,13.80
2019-04-05T21:34:02.416Z,16.30
2019-04-05T21:36:32.035Z,14.83
2019-04-05T21:39:01.571Z,15.50
2019-04-05T21:41:31.161Z,19.57
2019-04-05T21:44:00.691Z,18.70
2019-04-05T21:46:30.219Z,16.20
2019-04-05T21:48:59.872Z,17.07
2019-04-05T21:51:29.452Z,20.37
2019-04-05T21:53:58.960Z,22.40
2019-04-05T21:56:28.618Z,21.30
2019-04-05T21:58:58.488Z,15.50
2019-04-05T22:01:28.019Z,18.47
2019-04-05T22:03:57.587Z,17.97
2019-04-05T22:06:27.139Z,16.97
2019-04-05T22:08:56.633Z,16.47
2019-04-05T22:11:27.802Z,18.43
2019-04-05T22:13:57.675Z,15.63
2019-04-05T22:16:27.262Z,13.90
2019-04-05T22:18:56.745Z,14.93
2019-04-05T22:21:26.237Z,17.03
2019-04-05T22:23:55.731Z,22.37
2019-04-05T22:26:25.234Z,20.43
2019-04-05T22:28:54.826Z,22.37
2019-04-05T22:31:24.288Z,17.20
2019-04-05T22:33:53.826Z,20.63
2019-04-05T22:36:23.311Z,21.13
2019-04-05T22:38:52.886Z,20.97
2019-04-05T22:41:22.415Z,23.20
2019-04-05T22:43:51.914Z,19.27
2019-04-05T22:46:21.763Z,19.37
2019-04-05T22:48:51.275Z,20.03
2019-04-05T22:51:20.773Z,17.97
2019-04-05T22:53:50.295Z,17.60
2019-04-05T22:56:19.856Z,19.37
2019-04-05T22:58:49.392Z,16.17
2019-04-05T23:01:18.914Z,17.10
2019-04-05T23:03:48.464Z,17.57
2019-04-05T23:06:17.995Z,15.73
2019-04-05T23:08:47.544Z,23.07
2019-04-05T23:11:17.093Z,16.83
2019-04-05T23:13:46.584Z,16.53
2019-04-05T23:16:16.095Z,16.27
2019-04-05T23:18:45.657Z,18.67
2019-04-05T23:21:15.229Z,16.73
2019-04-05T23:23:44.747Z,17.30
2019-04-05T23:26:14.267Z,17.43
2019-04-05T23:28:43.739Z,15.53
2019-04-05T23:31:13.255Z,20.80
2019-04-05T23:33:42.744Z,19.90
2019-04-05T23:36:12.279Z,17.83
2019-04-05T23:38:41.773Z,15.23
2019-04-05T23:41:11.259Z,18.57
2019-04-05T23:43:40.785Z,15.67
2019-04-05T23:46:10.325Z,16.40
2019-04-05T23:48:39.842Z,20.27
2019-04-05T23:51:09.385Z,17.73
2019-04-05T23:53:40.730Z,17.17
2019-04-05T23:56:10.352Z,17.97
2019-04-05T23:58:39.858Z,16.07
